Time;durP1;ratioP1;P1;durP2;ratioP2;P2;SDS_P1;SDS_P2;PMS_P1;PMS_P2;Temp;Humidity;BMP_temperature;BMP_pressure;BME280_temperature;BME280_humidity;BME280_pressure;Samples;Min_cycle;Max_cycle;Signal;HPM_P1;HPM_P2
2022/02/18 00:01:41;;;;;;;4.35;2.35;;;;;;;7.05;98.44;99812.94;5010743;28;20057;-61
2022/02/18 00:04:07;;;;;;;0.57;0.55;;;;;;;7.14;98.27;99825.00;5010724;28;20121;-60
2022/02/18 00:06:32;;;;;;;2.75;0.98;;;;;;;7.21;97.79;99830.50;5009402;28;20137;-61
2022/02/18 00:08:58;;;;;;;5.45;0.65;;;;;;;7.21;97.83;99843.91;5010525;28;20029;-58
2022/02/18 00:11:24;;;;;;;2.30;0.60;;;;;;;7.14;98.00;99845.66;5009303;28;20037;-61
2022/02/18 00:13:49;;;;;;;4.75;0.77;;;;;;;7.07;97.85;99846.28;5012879;28;20033;-60
2022/02/18 00:16:15;;;;;;;1.70;0.90;;;;;;;7.03;98.64;99837.41;5022060;28;20041;-60
2022/02/18 00:18:40;;;;;;;13.30;1.27;;;;;;;7.05;99.07;99837.81;5016972;28;20048;-60
2022/02/18 00:21:06;;;;;;;2.58;1.00;;;;;;;6.97;99.82;99846.81;5008752;28;20046;-61
2022/02/18 00:23:32;;;;;;;1.90;0.40;;;;;;;6.95;100.00;99838.38;5010730;28;20037;-61
2022/02/18 00:25:57;;;;;;;2.95;0.43;;;;;;;7.05;100.00;99853.88;5010621;28;20546;-61
2022/02/18 00:28:23;;;;;;;2.28;0.45;;;;;;;7.07;100.00;99861.56;5009345;28;20092;-61
2022/02/18 00:30:48;;;;;;;1.52;0.40;;;;;;;7.09;100.00;99864.66;5024425;28;20033;-61
2022/02/18 00:33:14;;;;;;;1.85;0.50;;;;;;;7.05;100.00;99856.56;5010307;28;20045;-61
2022/02/18 00:35:40;;;;;;;1.80;0.98;;;;;;;7.06;100.00;99866.16;5017413;28;20037;-61
2022/02/18 00:38:06;;;;;;;0.73;0.68;;;;;;;7.04;100.00;99875.66;5021350;28;20029;-60
2022/02/18 00:40:32;;;;;;;7.15;0.77;;;;;;;7.05;100.00;99877.19;5015619;28;20033;-61
2022/02/18 00:42:58;;;;;;;2.33;0.82;;;;;;;7.00;100.00;99872.13;5023736;28;20125;-61
2022/02/18 00:45:24;;;;;;;4.78;0.55;;;;;;;7.01;100.00;99879.78;5010571;28;20048;-61
2022/02/18 00:47:51;;;;;;;1.38;0.40;;;;;;;6.98;99.85;99877.84;5012747;28;20522;-61
2022/02/18 00:50:18;;;;;;;4.50;0.55;;;;;;;7.06;98.73;99871.50;5022357;28;20033;-61
2022/02/18 00:52:44;;;;;;;7.53;0.80;;;;;;;6.88;98.53;99885.63;5029274;28;20052;-60
2022/02/18 00:55:11;;;;;;;2.80;0.65;;;;;;;6.89;98.23;99887.94;5010081;28;20046;-61
2022/02/18 00:57:38;;;;;;;0.50;0.50;;;;;;;6.86;98.38;99877.94;5016218;28;20034;-61
2022/02/18 01:00:07;;;;;;;0.57;0.30;;;;;;;6.78;97.48;99886.16;5027301;28;20528;-60
2022/02/18 01:02:33;;;;;;;1.38;0.47;;;;;;;6.66;97.40;99884.34;5010279;28;20042;-61
2022/02/18 01:04:59;;;;;;;4.18;0.82;;;;;;;6.67;96.81;99890.47;5010633;28;20044;-61
2022/02/18 01:07:25;;;;;;;0.63;0.40;;;;;;;6.68;96.58;99892.81;5010343;28;20128;-60
2022/02/18 01:09:53;;;;;;;3.85;0.20;;;;;;;6.81;96.33;99882.78;5017707;28;20029;-60
2022/02/18 01:12:19;;;;;;;1.35;0.38;;;;;;;6.83;96.27;99899.28;5030393;28;20044;-61
2022/02/18 01:14:45;;;;;;;1.58;0.35;;;;;;;6.86;96.37;99899.34;5007824;28;20052;-61
2022/02/18 01:17:11;;;;;;;0.30;0.30;;;;;;;6.90;96.57;99905.56;5023156;28;20112;-60
2022/02/18 01:19:36;;;;;;;1.52;0.35;;;;;;;6.87;96.49;99908.16;5015228;28;20030;-58
2022/02/18 01:22:22;;;;;;;4.13;0.50;;;;;;;6.91;96.29;99911.69;5010234;28;20378;-60
2022/02/18 01:24:48;;;;;;;0.60;0.22;;;;;;;6.82;96.03;99927.13;5007750;28;20123;-61
2022/02/18 01:27:14;;;;;;;1.73;1.33;;;;;;;6.76;95.70;99939.22;4974475;28;20566;-61
2022/02/18 01:29:39;;;;;;;3.30;0.40;;;;;;;6.76;96.30;99918.59;5014444;28;20045;-61
2022/02/18 01:32:09;;;;;;;0.50;0.50;;;;;;;6.79;95.54;99925.16;5027093;28;20033;-60
2022/02/18 01:34:35;;;;;;;2.23;0.77;;;;;;;6.73;95.72;99926.56;4990747;28;20523;-60
2022/02/18 01:37:01;;;;;;;0.73;0.45;;;;;;;6.75;94.90;99926.97;5009494;28;20223;-61
2022/02/18 01:39:27;;;;;;;0.20;0.20;;;;;;;6.66;94.94;99921.81;5006548;28;20153;-60
2022/02/18 01:41:52;;;;;;;5.88;0.50;;;;;;;6.64;94.89;99916.03;5011824;28;20128;-61
2022/02/18 01:44:39;;;;;;;2.00;0.17;;;;;;;6.66;94.56;99921.81;5022840;28;20065;-60
2022/02/18 01:47:15;;;;;;;1.85;0.50;;;;;;;6.57;95.17;99931.13;5010712;28;20034;-60
2022/02/18 01:49:42;;;;;;;1.33;1.17;;;;;;;6.57;94.94;99915.06;5000755;28;20489;-60
2022/02/18 01:52:08;;;;;;;4.43;1.23;;;;;;;6.48;95.22;99906.47;5020184;28;20423;-61
2022/02/18 01:54:33;;;;;;;4.70;0.50;;;;;;;6.50;95.08;99906.88;5008306;28;20045;-61
2022/02/18 01:57:01;;;;;;;2.90;0.82;;;;;;;6.47;95.43;99896.88;5014284;28;20037;-61
2022/02/18 01:59:28;;;;;;;0.52;0.43;;;;;;;6.38;95.18;99907.75;5009409;28;20073;-61
2022/02/18 02:01:54;;;;;;;0.82;0.55;;;;;;;6.33;95.51;99908.78;5014837;28;20143;-61
2022/02/18 02:04:22;;;;;;;0.90;0.50;;;;;;;6.37;95.43;99909.66;5023106;28;20037;-60
2022/02/18 02:06:51;;;;;;;0.17;0.17;;;;;;;6.37;95.46;99901.63;5027570;28;20040;-61
2022/02/18 02:09:17;;;;;;;0.20;0.20;;;;;;;6.42;95.20;99902.50;5027128;28;20122;-61
2022/02/18 02:11:43;;;;;;;4.78;0.73;;;;;;;6.41;94.71;99898.28;5020349;28;20437;-61
2022/02/18 02:14:10;;;;;;;2.47;0.50;;;;;;;6.39;95.21;99911.97;5025918;28;20033;-61
2022/02/18 02:16:40;;;;;;;6.45;0.60;;;;;;;6.29;95.06;99902.56;5027917;28;20033;-61
2022/02/18 02:19:06;;;;;;;4.32;0.60;;;;;;;6.26;95.17;99895.25;5023200;28;20033;-61
2022/02/18 02:21:31;;;;;;;4.07;0.60;;;;;;;6.22;95.30;99894.38;5001142;28;20678;-61
2022/02/18 02:23:58;;;;;;;2.75;0.30;;;;;;;6.26;95.27;99889.13;5025338;28;20075;-61
2022/02/18 02:26:28;;;;;;;0.17;0.17;;;;;;;6.26;95.06;99884.56;5016610;28;20041;-58
2022/02/18 02:28:55;;;;;;;2.63;0.52;;;;;;;6.25;95.04;99901.69;5010257;28;20065;-60
2022/02/18 02:31:23;;;;;;;2.08;0.60;;;;;;;6.22;95.51;99886.38;5015897;28;20069;-60
2022/02/18 02:33:48;;;;;;;4.90;0.40;;;;;;;6.18;95.39;99890.06;5014112;28;20038;-59
2022/02/18 02:36:14;;;;;;;2.22;0.60;;;;;;;6.15;95.48;99891.53;5007119;28;20425;-61
2022/02/18 02:38:41;;;;;;;4.90;1.25;;;;;;;6.12;95.52;99894.88;5004455;28;20385;-60
2022/02/18 02:41:07;;;;;;;3.10;0.85;;;;;;;6.14;95.71;99894.53;5011488;28;20084;-57
2022/02/18 02:43:34;;;;;;;4.95;0.40;;;;;;;6.11;96.24;99895.22;5019926;28;20042;-60
2022/02/18 02:46:01;;;;;;;0.35;0.35;;;;;;;6.11;95.80;99906.72;5020025;28;20060;-61
2022/02/18 02:48:27;;;;;;;3.53;0.45;;;;;;;6.06;95.96;99909.63;5024484;28;20036;-60
2022/02/18 02:50:56;;;;;;;0.45;0.25;;;;;;;6.09;96.35;99898.25;5011055;28;20038;-61
2022/02/18 02:53:24;;;;;;;0.77;0.73;;;;;;;6.07;96.51;99907.72;5013703;28;20470;-59
2022/02/18 02:55:50;;;;;;;4.43;0.73;;;;;;;6.03;96.56;99899.63;5027407;28;20112;-61
2022/02/18 02:58:16;;;;;;;1.85;0.45;;;;;;;6.08;96.55;99904.69;5011999;28;20030;-59
2022/02/18 03:00:43;;;;;;;2.00;0.50;;;;;;;5.99;97.15;99904.09;5023689;28;20456;-61
2022/02/18 03:03:13;;;;;;;5.38;0.70;;;;;;;5.97;97.62;99911.69;5044079;28;20029;-59
2022/02/18 03:05:49;;;;;;;1.70;0.52;;;;;;;6.08;97.14;99914.59;5026868;28;20026;-60
2022/02/18 03:08:16;;;;;;;0.17;0.17;;;;;;;6.05;97.33;99908.06;5016776;28;20025;-60
2022/02/18 03:11:14;;;;;;;1.63;1.10;;;;;;;6.08;97.19;99912.72;5010975;28;20403;-58
2022/02/18 03:13:30;;;;;;;6.65;0.80;;;;;;;5.95;98.13;99907.78;5010378;28;20044;-61
2022/02/18 03:15:55;;;;;;;6.00;0.52;;;;;;;5.97;97.73;99916.22;5021143;28;20112;-58
2022/02/18 03:18:22;;;;;;;0.75;0.40;;;;;;;5.96;97.91;99920.78;5020022;28;20124;-61
2022/02/18 03:20:55;;;;;;;0.55;0.55;;;;;;;5.98;98.03;99917.81;5012641;28;20407;-61
2022/02/18 03:23:20;;;;;;;8.85;0.47;;;;;;;5.99;97.77;99912.13;5023492;28;20041;-60
2022/02/18 03:25:46;;;;;;;2.20;0.43;;;;;;;5.95;98.47;99910.44;5010438;28;20036;-61
2022/02/18 03:28:11;;;;;;;0.43;0.40;;;;;;;5.94;98.25;99916.94;5015639;28;20488;-61
2022/02/18 03:30:38;;;;;;;3.28;0.38;;;;;;;5.85;98.74;99909.06;5024157;28;20029;-61
2022/02/18 03:33:04;;;;;;;7.38;0.57;;;;;;;5.92;98.69;99922.59;5023583;28;20045;-61
2022/02/18 03:35:30;;;;;;;0.40;0.30;;;;;;;5.88;98.68;99920.97;5010280;28;20041;-59
2022/02/18 03:37:57;;;;;;;0.38;0.25;;;;;;;5.83;99.47;99915.81;5010127;28;20060;-60
2022/02/18 03:40:27;;;;;;;7.22;0.52;;;;;;;5.86;99.30;99920.53;5012004;28;20036;-61
2022/02/18 03:42:53;;;;;;;1.38;0.55;;;;;;;5.80;99.47;99917.28;5022590;28;20030;-60
2022/02/18 03:45:19;;;;;;;10.30;1.13;;;;;;;5.90;99.27;99913.38;5013657;28;20040;-61
2022/02/18 03:47:44;;;;;;;2.10;0.32;;;;;;;5.82;99.92;99916.94;5028712;28;20037;-60
2022/02/18 03:50:14;;;;;;;0.70;0.25;;;;;;;5.80;100.00;99916.50;5021850;28;20021;-60
2022/02/18 03:52:40;;;;;;;4.38;0.30;;;;;;;5.81;100.00;99910.03;5025004;28;20033;-60
2022/02/18 03:55:06;;;;;;;3.17;0.63;;;;;;;5.84;100.00;99920.09;5010352;28;20109;-59
2022/02/18 03:57:33;;;;;;;2.55;0.60;;;;;;;5.85;100.00;99903.72;5010345;28;20037;-59
2022/02/18 03:59:58;;;;;;;7.18;1.27;;;;;;;5.91;100.00;99906.91;5011715;28;20134;-60
2022/02/18 04:02:24;;;;;;;2.60;0.57;;;;;;;5.89;100.00;99906.47;5010214;28;20080;-61
2022/02/18 04:04:50;;;;;;;1.65;0.35;;;;;;;5.87;100.00;99903.38;5009877;28;20386;-61
2022/02/18 04:07:26;;;;;;;7.95;0.40;;;;;;;5.88;100.00;99902.25;5025577;28;20029;-61
2022/02/18 04:09:58;;;;;;;6.70;0.57;;;;;;;5.86;100.00;99904.50;5010055;28;20041;-61
2022/02/18 04:12:25;;;;;;;0.60;0.60;;;;;;;5.83;100.00;99891.78;5028629;28;20057;-61
2022/02/18 04:14:55;;;;;;;1.25;0.50;;;;;;;5.81;100.00;99886.00;5027010;28;20510;-61
2022/02/18 04:17:24;;;;;;;2.33;0.70;;;;;;;5.84;100.00;99886.16;5020780;28;20435;-60
2022/02/18 04:19:58;;;;;;;2.53;0.60;;;;;;;5.85;100.00;99897.59;5010189;28;20037;-60
2022/02/18 04:22:32;;;;;;;4.22;0.57;;;;;;;5.85;100.00;99893.03;5022969;28;20048;-60
2022/02/18 04:24:58;;;;;;;0.93;0.35;;;;;;;5.89;100.00;99922.50;5026018;28;20112;-60
2022/02/18 04:27:23;;;;;;;2.17;0.32;;;;;;;5.88;100.00;99916.41;5008773;28;20096;-58
2022/02/18 04:29:49;;;;;;;4.50;0.52;;;;;;;5.87;100.00;99917.50;5013659;28;20040;-60
2022/02/18 04:32:14;;;;;;;3.78;0.60;;;;;;;5.87;100.00;99922.06;5033182;28;20037;-60
2022/02/18 04:34:40;;;;;;;1.13;0.32;;;;;;;5.83;100.00;99923.84;5022333;28;20116;-60
2022/02/18 04:37:06;;;;;;;0.52;0.40;;;;;;;5.86;100.00;99931.22;5045208;28;20118;-60
2022/02/18 04:39:32;;;;;;;1.38;0.55;;;;;;;5.88;100.00;99924.41;5040005;28;20040;-60
2022/02/18 04:41:57;;;;;;;0.35;0.25;;;;;;;5.88;100.00;99921.75;5044756;28;20395;-60
2022/02/18 04:44:23;;;;;;;1.73;0.65;;;;;;;5.88;100.00;99918.28;5043629;28;20029;-59
2022/02/18 04:46:51;;;;;;;1.35;0.47;;;;;;;5.86;100.00;99915.97;5047596;28;20040;-60
2022/02/18 04:49:17;;;;;;;0.90;0.50;;;;;;;5.87;100.00;99919.41;5038877;28;20036;-61
2022/02/18 04:51:42;;;;;;;2.42;0.55;;;;;;;5.86;100.00;99901.81;5032694;28;20037;-60
2022/02/18 04:54:07;;;;;;;1.02;0.93;;;;;;;5.83;100.00;99897.13;5019519;28;20068;-61
2022/02/18 04:56:34;;;;;;;0.93;0.45;;;;;;;5.78;100.00;99916.06;5015916;28;20033;-59
2022/02/18 04:59:00;;;;;;;1.33;0.70;;;;;;;5.78;100.00;99903.50;5017360;28;20053;-61
2022/02/18 05:01:26;;;;;;;1.25;0.32;;;;;;;5.79;100.00;99893.59;5008301;28;20037;-59
2022/02/18 05:03:53;;;;;;;3.95;0.40;;;;;;;5.83;100.00;99900.59;5008058;28;20049;-60
2022/02/18 05:06:19;;;;;;;2.90;0.32;;;;;;;5.82;100.00;99895.59;5021117;28;20067;-61
2022/02/18 05:08:45;;;;;;;3.72;0.65;;;;;;;5.86;100.00;99891.94;5007546;28;20040;-59
2022/02/18 05:11:11;;;;;;;6.63;0.60;;;;;;;5.89;100.00;99890.44;5027846;28;20029;-61
2022/02/18 05:13:37;;;;;;;1.70;1.13;;;;;;;5.85;100.00;99884.22;5006679;28;20042;-61
2022/02/18 05:16:03;;;;;;;0.73;0.70;;;;;;;5.87;100.00;99879.31;5010088;28;20071;-61
2022/02/18 05:18:29;;;;;;;6.38;0.65;;;;;;;5.80;100.00;99869.22;5016728;28;20029;-59
2022/02/18 05:20:54;;;;;;;1.27;0.55;;;;;;;5.90;100.00;99865.28;5023538;28;20036;-59
2022/02/18 05:23:20;;;;;;;3.55;0.57;;;;;;;5.92;100.00;99869.16;5008943;28;20040;-61
2022/02/18 05:25:45;;;;;;;0.50;0.50;;;;;;;5.90;100.00;99862.63;5009470;28;20038;-60
2022/02/18 05:28:10;;;;;;;0.65;0.60;;;;;;;5.94;100.00;99860.81;5024442;28;20071;-61
2022/02/18 05:30:36;;;;;;;2.75;0.63;;;;;;;5.95;100.00;99857.03;5011796;28;20384;-60
2022/02/18 05:33:02;;;;;;;4.05;0.50;;;;;;;5.90;100.00;99846.59;5006437;28;20030;-58
2022/02/18 05:35:29;;;;;;;2.15;0.77;;;;;;;5.91;100.00;99853.47;5027884;28;20041;-61
2022/02/18 05:37:54;;;;;;;1.08;0.80;;;;;;;5.86;100.00;99848.41;5027322;28;20053;-61
2022/02/18 05:40:20;;;;;;;0.32;0.30;;;;;;;5.83;100.00;99846.38;5016861;28;20038;-60
2022/02/18 05:42:45;;;;;;;3.70;0.95;;;;;;;5.78;100.00;99844.75;5025130;28;20041;-61
2022/02/18 05:45:12;;;;;;;0.35;0.30;;;;;;;5.79;100.00;99842.84;5027309;28;20104;-61
2022/02/18 05:47:39;;;;;;;2.10;0.60;;;;;;;5.83;100.00;99849.03;5034144;28;20038;-61
2022/02/18 05:50:13;;;;;;;2.47;0.65;;;;;;;5.82;100.00;99844.81;5025288;28;20365;-61
2022/02/18 05:52:40;;;;;;;0.82;0.40;;;;;;;5.89;100.00;99837.00;5011779;28;20045;-61
2022/02/18 05:55:06;;;;;;;1.58;0.52;;;;;;;5.88;100.00;99830.91;5007424;28;20029;-61
2022/02/18 05:57:31;;;;;;;2.08;0.70;;;;;;;5.88;100.00;99830.91;5021580;28;20141;-59
2022/02/18 05:59:57;;;;;;;4.07;0.47;;;;;;;5.82;100.00;99829.59;5007410;28;20044;-59
2022/02/18 06:02:22;;;;;;;1.40;0.40;;;;;;;5.85;100.00;99809.44;5028304;28;20506;-61
2022/02/18 06:04:48;;;;;;;2.30;0.50;;;;;;;5.87;100.00;99809.88;5033295;28;20025;-61
2022/02/18 06:07:17;;;;;;;1.05;0.73;;;;;;;5.88;100.00;99811.44;5031009;28;20094;-61
2022/02/18 06:09:44;;;;;;;0.70;0.60;;;;;;;5.85;100.00;99806.75;5032121;28;20061;-61
2022/02/18 06:12:10;;;;;;;0.63;0.57;;;;;;;5.89;100.00;99807.63;5024484;28;20123;-61
2022/02/18 06:14:36;;;;;;;2.67;0.93;;;;;;;5.90;100.00;99801.19;5029192;28;20069;-61
2022/02/18 06:17:05;;;;;;;2.75;1.02;;;;;;;5.95;100.00;99806.25;5023866;28;20389;-61
2022/02/18 06:19:35;;;;;;;6.28;0.85;;;;;;;5.94;100.00;99797.47;5019725;28;20042;-61
2022/02/18 06:22:00;;;;;;;3.30;0.60;;;;;;;5.89;100.00;99791.59;5020618;28;20025;-61
2022/02/18 06:24:25;;;;;;;5.22;1.05;;;;;;;5.96;100.00;99775.75;5029633;28;20446;-58
2022/02/18 06:26:51;;;;;;;3.92;1.23;;;;;;;5.98;100.00;99778.88;5042435;28;20258;-61
2022/02/18 06:29:16;;;;;;;3.38;0.95;;;;;;;5.92;100.00;99780.25;5023015;28;20046;-61
2022/02/18 06:31:42;;;;;;;3.35;0.70;;;;;;;5.93;100.00;99781.78;5034807;28;20451;-61
2022/02/18 06:34:07;;;;;;;2.35;0.63;;;;;;;5.91;100.00;99773.34;5033452;28;20029;-61
2022/02/18 06:36:33;;;;;;;0.40;0.40;;;;;;;5.87;100.00;99767.13;5035823;28;20094;-61
2022/02/18 06:38:59;;;;;;;7.18;1.65;;;;;;;5.87;100.00;99759.91;5019974;28;20029;-62
2022/02/18 06:41:25;;;;;;;1.98;0.88;;;;;;;5.91;100.00;99758.09;5020621;28;20159;-59
2022/02/18 06:43:50;;;;;;;1.02;0.80;;;;;;;5.90;100.00;99758.44;5042173;28;20021;-61
2022/02/18 06:46:16;;;;;;;5.90;1.30;;;;;;;5.91;100.00;99750.06;5025996;28;20396;-61
2022/02/18 06:48:42;;;;;;;2.67;0.60;;;;;;;5.90;100.00;99751.22;5026633;28;20037;-61
2022/02/18 06:51:08;;;;;;;0.70;0.70;;;;;;;5.91;100.00;99751.97;5013390;28;20026;-60
2022/02/18 06:53:34;;;;;;;4.28;0.68;;;;;;;5.89;100.00;99748.84;5008786;28;20038;-61
2022/02/18 06:56:00;;;;;;;1.08;0.73;;;;;;;5.86;100.00;99747.66;5024842;28;20064;-61
2022/02/18 06:58:26;;;;;;;6.55;1.15;;;;;;;5.91;100.00;99735.94;5030708;28;20045;-61
2022/02/18 07:00:51;;;;;;;5.22;0.80;;;;;;;5.98;100.00;99730.78;5019441;28;20053;-61
2022/02/18 07:03:20;;;;;;;3.42;0.80;;;;;;;5.94;100.00;99728.00;5032344;28;20511;-61
2022/02/18 07:05:46;;;;;;;1.10;0.73;;;;;;;5.97;100.00;99737.22;5032801;28;20955;-60
2022/02/18 07:08:12;;;;;;;4.95;1.67;;;;;;;5.95;100.00;99726.88;5019197;28;20029;-59
2022/02/18 07:10:38;;;;;;;8.27;0.98;;;;;;;5.93;100.00;99731.03;5026996;28;20025;-58
2022/02/18 07:13:04;;;;;;;3.92;0.75;;;;;;;6.01;100.00;99714.03;5039595;28;20518;-60
2022/02/18 07:15:29;;;;;;;2.55;0.90;;;;;;;5.94;100.00;99714.63;5030421;28;20034;-60
2022/02/18 07:17:55;;;;;;;5.55;0.90;;;;;;;5.96;100.00;99708.97;5029881;28;20419;-60
2022/02/18 07:20:21;;;;;;;1.38;0.75;;;;;;;5.98;100.00;99704.06;5030568;28;20472;-60
2022/02/18 07:22:47;;;;;;;1.50;0.95;;;;;;;6.02;100.00;99699.56;5031684;28;20049;-58
2022/02/18 07:25:16;;;;;;;2.22;0.75;;;;;;;6.04;100.00;99697.31;5032107;28;20052;-58
2022/02/18 07:27:42;;;;;;;3.22;1.05;;;;;;;5.96;100.00;99695.63;5015938;28;20033;-58
2022/02/18 07:30:09;;;;;;;4.40;0.95;;;;;;;5.98;100.00;99694.13;5022634;28;20053;-57
2022/02/18 07:32:34;;;;;;;2.95;0.77;;;;;;;6.07;100.00;99685.94;5013571;28;20049;-59
2022/02/18 07:35:00;;;;;;;4.35;1.25;;;;;;;6.18;100.00;99681.59;5012431;28;20034;-61
2022/02/18 07:37:25;;;;;;;3.25;1.10;;;;;;;6.21;100.00;99675.56;5016749;28;20045;-58
2022/02/18 07:39:51;;;;;;;1.02;0.82;;;;;;;6.27;100.00;99682.94;5022425;28;20057;-58
2022/02/18 07:42:16;;;;;;;3.30;1.02;;;;;;;6.26;100.00;99685.97;5010601;28;20025;-58
2022/02/18 07:44:44;;;;;;;5.72;1.63;;;;;;;6.30;100.00;99681.47;5013776;28;20095;-59
2022/02/18 07:47:09;;;;;;;1.65;1.15;;;;;;;6.30;100.00;99665.44;5030992;28;20469;-59
2022/02/18 07:49:35;;;;;;;6.90;0.95;;;;;;;6.34;100.00;99664.38;5024306;28;20074;-59
2022/02/18 07:52:00;;;;;;;1.85;1.13;;;;;;;6.30;100.00;99660.09;5035372;28;20341;-60
2022/02/18 07:54:26;;;;;;;4.43;1.20;;;;;;;6.33;100.00;99640.66;5038879;28;20029;-60
2022/02/18 07:56:51;;;;;;;1.52;0.88;;;;;;;6.23;100.00;99652.69;5051672;28;20040;-61
2022/02/18 07:59:17;;;;;;;1.70;0.75;;;;;;;6.30;100.00;99652.06;5022278;28;20072;-60
2022/02/18 08:01:42;;;;;;;10.98;1.40;;;;;;;6.32;100.00;99644.47;5029096;28;20446;-60
2022/02/18 08:04:08;;;;;;;12.15;1.20;;;;;;;6.26;100.00;99637.84;5019847;28;20056;-60
2022/02/18 08:06:35;;;;;;;1.65;1.08;;;;;;;6.38;100.00;99637.72;5010045;28;20234;-60
2022/02/18 08:09:01;;;;;;;1.17;0.60;;;;;;;6.33;100.00;99630.75;5030225;28;20103;-59
2022/02/18 08:11:27;;;;;;;2.92;1.40;;;;;;;6.28;100.00;99615.00;5031553;28;20038;-60
2022/02/18 08:13:53;;;;;;;2.40;0.90;;;;;;;6.30;100.00;99606.63;5023095;28;20441;-61
2022/02/18 08:16:19;;;;;;;5.75;1.02;;;;;;;6.36;100.00;99613.25;5022674;28;20041;-61
2022/02/18 08:18:44;;;;;;;5.00;0.80;;;;;;;6.45;100.00;99599.63;5028407;28;20037;-60
2022/02/18 08:21:12;;;;;;;2.35;0.98;;;;;;;6.51;100.00;99592.88;5026832;28;20377;-61
2022/02/18 08:23:37;;;;;;;2.03;1.02;;;;;;;6.57;100.00;99592.25;5022536;28;20083;-58
2022/02/18 08:26:03;;;;;;;4.55;0.77;;;;;;;6.57;100.00;99588.78;5018224;28;20489;-60
2022/02/18 08:28:29;;;;;;;1.45;1.00;;;;;;;6.58;100.00;99593.03;5008422;28;20098;-60
2022/02/18 08:30:54;;;;;;;4.13;1.33;;;;;;;6.53;100.00;99580.72;5012770;28;20025;-60
2022/02/18 08:33:20;;;;;;;3.50;0.68;;;;;;;6.54;100.00;99576.94;5024176;28;20034;-61
2022/02/18 08:35:46;;;;;;;5.43;1.10;;;;;;;6.45;100.00;99576.34;5012164;28;20431;-59
2022/02/18 08:38:12;;;;;;;1.20;0.70;;;;;;;6.52;100.00;99562.34;5040375;28;20554;-61
2022/02/18 08:40:37;;;;;;;4.15;1.27;;;;;;;6.58;100.00;99559.03;5015206;28;20065;-60
2022/02/18 08:43:03;;;;;;;1.75;0.93;;;;;;;6.60;100.00;99546.06;5029260;28;20807;-60
2022/02/18 08:45:29;;;;;;;2.38;0.75;;;;;;;6.63;100.00;99553.41;5033578;28;20037;-59
2022/02/18 08:47:57;;;;;;;9.00;1.02;;;;;;;6.70;100.00;99536.69;5032159;28;20086;-57
2022/02/18 08:50:23;;;;;;;3.10;1.05;;;;;;;6.76;100.00;99533.38;5020609;28;20123;-60
2022/02/18 08:52:48;;;;;;;1.83;0.88;;;;;;;6.83;100.00;99522.03;5035858;28;20530;-58
2022/02/18 08:55:15;;;;;;;4.05;1.23;;;;;;;6.78;100.00;99512.38;5026505;28;20041;-59
2022/02/18 08:57:43;;;;;;;5.45;2.10;;;;;;;6.84;100.00;99505.59;5040080;28;20384;-60
2022/02/18 09:00:09;;;;;;;2.28;1.08;;;;;;;6.78;100.00;99500.91;5027106;28;20072;-57
2022/02/18 09:02:36;;;;;;;3.22;0.95;;;;;;;6.82;100.00;99491.03;5031641;28;20032;-60
2022/02/18 09:05:03;;;;;;;3.78;1.05;;;;;;;6.85;100.00;99477.72;5031734;28;20963;-58
2022/02/18 09:07:29;;;;;;;3.38;1.25;;;;;;;6.86;100.00;99479.25;5036555;28;20419;-59
2022/02/18 09:09:56;;;;;;;15.48;1.60;;;;;;;6.83;100.00;99465.84;5032195;28;20560;-59
2022/02/18 09:12:23;;;;;;;2.83;1.13;;;;;;;6.85;100.00;99458.22;5035036;28;20037;-60
2022/02/18 09:14:48;;;;;;;2.30;1.80;;;;;;;6.88;100.00;99458.28;5042458;28;20029;-61
2022/02/18 09:17:26;;;;;;;3.75;1.08;;;;;;;6.85;100.00;99434.91;5033782;28;20079;-59
2022/02/18 09:19:53;;;;;;;2.63;1.58;;;;;;;6.93;100.00;99436.56;5019475;28;20432;-59
2022/02/18 09:22:19;;;;;;;3.30;1.42;;;;;;;6.85;100.00;99437.56;5008290;28;20400;-60
2022/02/18 09:24:44;;;;;;;6.00;1.10;;;;;;;6.80;100.00;99429.09;5008390;28;20033;-59
2022/02/18 09:27:10;;;;;;;2.17;1.02;;;;;;;6.79;100.00;99417.63;5009395;28;20141;-57
2022/02/18 09:29:36;;;;;;;5.78;1.48;;;;;;;6.79;100.00;99403.47;5008251;28;20026;-59
2022/02/18 09:32:04;;;;;;;2.28;1.33;;;;;;;6.89;100.00;99394.84;5017349;28;20033;-59
2022/02/18 09:34:31;;;;;;;1.85;1.08;;;;;;;6.93;100.00;99385.72;5023784;28;20064;-60
2022/02/18 09:36:57;;;;;;;5.63;1.27;;;;;;;6.96;100.00;99354.78;5034414;28;20056;-58
2022/02/18 09:39:23;;;;;;;7.00;1.23;;;;;;;6.99;100.00;99324.63;5025889;28;20038;-59
2022/02/18 09:41:48;;;;;;;1.95;1.02;;;;;;;7.07;100.00;99321.69;5023790;28;20084;-60
2022/02/18 09:44:16;;;;;;;3.67;1.33;;;;;;;7.08;100.00;99303.72;5014816;28;20033;-59
2022/02/18 09:46:43;;;;;;;6.03;1.10;;;;;;;7.14;100.00;99315.66;5029661;28;20041;-59
2022/02/18 09:49:09;;;;;;;2.28;1.38;;;;;;;7.14;100.00;99302.28;5016505;28;20034;-58
2022/02/18 09:51:37;;;;;;;10.02;1.75;;;;;;;7.15;100.00;99301.91;5008634;28;20136;-60
2022/02/18 09:54:03;;;;;;;3.72;1.20;;;;;;;7.14;100.00;99311.06;5019303;28;20033;-59
2022/02/18 09:56:33;;;;;;;5.72;1.00;;;;;;;7.15;100.00;99296.53;5028998;28;20443;-58
2022/02/18 09:59:07;;;;;;;2.92;1.20;;;;;;;7.19;100.00;99291.22;5017850;28;20124;-56
2022/02/18 10:01:33;;;;;;;2.90;1.55;;;;;;;7.21;100.00;99270.22;5020207;28;20046;-59
2022/02/18 10:04:00;;;;;;;2.55;1.20;;;;;;;7.20;100.00;99280.16;5019785;28;20126;-58
2022/02/18 10:06:29;;;;;;;1.20;0.77;;;;;;;7.14;100.00;99265.56;5032788;28;20397;-58
2022/02/18 10:08:55;;;;;;;2.00;1.05;;;;;;;7.13;100.00;99258.66;5025417;28;20441;-59
2022/02/18 10:11:21;;;;;;;3.15;0.90;;;;;;;7.12;100.00;99243.72;5026142;28;20044;-58
2022/02/18 10:13:48;;;;;;;2.17;1.10;;;;;;;7.17;100.00;99226.56;5014721;28;20030;-59
2022/02/18 10:16:23;;;;;;;6.82;1.17;;;;;;;7.18;100.00;99226.22;5017934;28;20607;-60
2022/02/18 10:19:00;;;;;;;6.82;1.05;;;;;;;7.11;100.00;99214.66;5016492;28;20037;-58
2022/02/18 10:21:31;;;;;;;1.65;0.80;;;;;;;7.09;100.00;99200.88;5027450;28;20068;-59
2022/02/18 10:24:08;;;;;;;2.53;0.95;;;;;;;7.08;100.00;99185.97;5021722;28;20045;-59
2022/02/18 10:26:38;;;;;;;3.20;1.20;;;;;;;7.04;100.00;99166.44;5025429;28;20033;-57
2022/02/18 10:29:05;;;;;;;3.90;1.60;;;;;;;7.08;100.00;99154.59;5031407;28;20028;-58
2022/02/18 10:31:31;;;;;;;1.17;0.95;;;;;;;7.03;100.00;99138.09;5022306;28;20026;-60
2022/02/18 10:34:09;;;;;;;4.63;1.08;;;;;;;7.03;100.00;99138.09;5024819;28;20049;-58
2022/02/18 10:36:39;;;;;;;4.38;2.20;;;;;;;7.04;100.00;99124.38;5016750;28;20065;-59
2022/02/18 10:39:28;;;;;;;1.52;1.17;;;;;;;7.05;100.00;99117.09;5021985;28;20037;-60
2022/02/18 10:41:59;;;;;;;1.35;1.00;;;;;;;7.01;100.00;99101.03;5023922;28;20042;-59
2022/02/18 10:44:30;;;;;;;1.83;1.05;;;;;;;7.07;100.00;99088.06;5023926;28;20044;-59
2022/02/18 10:46:56;;;;;;;1.75;1.00;;;;;;;7.17;100.00;99085.50;5014949;28;20033;-60
2022/02/18 10:49:29;;;;;;;2.72;1.05;;;;;;;7.28;100.00;99074.84;5020051;28;20060;-60
2022/02/18 10:51:56;;;;;;;1.83;1.08;;;;;;;7.17;100.00;99063.31;5023103;28;20033;-60
2022/02/18 10:54:32;;;;;;;1.35;0.85;;;;;;;7.27;100.00;99041.19;5027246;28;20508;-58
2022/02/18 10:57:15;;;;;;;2.67;1.27;;;;;;;7.16;100.00;99025.06;5030796;28;20035;-59
2022/02/18 10:59:41;;;;;;;1.27;1.13;;;;;;;7.15;100.00;99026.22;5010618;28;20034;-58
2022/02/18 11:02:07;;;;;;;1.48;0.85;;;;;;;7.07;100.00;99005.88;5022889;28;20041;-60
2022/02/18 11:04:34;;;;;;;2.10;1.58;;;;;;;7.07;100.00;99011.25;5019894;28;20034;-58
2022/02/18 11:07:09;;;;;;;2.83;0.98;;;;;;;7.22;100.00;98986.09;5024029;28;20030;-59
2022/02/18 11:09:35;;;;;;;1.33;0.90;;;;;;;7.12;100.00;98968.06;5023144;28;20041;-57
2022/02/18 11:12:06;;;;;;;2.58;1.23;;;;;;;7.16;100.00;98947.44;5027993;28;20029;-58
2022/02/18 11:14:32;;;;;;;;;;;;;;;7.15;100.00;98940.56;5033403;28;20033;-60
2022/02/18 11:16:57;;;;;;;3.35;1.42;;;;;;;7.33;100.00;98937.97;5027118;28;19920;-59
2022/02/18 11:19:23;;;;;;;2.28;1.30;;;;;;;7.36;100.00;98925.72;5024386;28;20045;-54
2022/02/18 11:21:51;;;;;;;3.63;2.53;;;;;;;7.29;100.00;98913.88;5019157;28;20167;-58
2022/02/18 11:24:18;;;;;;;4.03;1.63;;;;;;;7.29;100.00;98916.56;5032452;28;20395;-59
2022/02/18 11:26:44;;;;;;;1.45;0.90;;;;;;;7.31;100.00;98894.75;5022184;28;20044;-56
2022/02/18 11:29:11;;;;;;;1.67;1.10;;;;;;;7.24;100.00;98892.81;5022132;28;20041;-59
2022/02/18 11:31:52;;;;;;;1.70;1.40;;;;;;;7.27;100.00;98867.97;5024570;28;20045;-58
2022/02/18 11:34:30;;;;;;;4.53;1.63;;;;;;;7.29;100.00;98862.25;5028416;28;20071;-59
2022/02/18 11:37:27;;;;;;;5.43;2.50;;;;;;;7.22;100.00;98851.47;5028965;28;20389;-58